Time;durP1;ratioP1;P1;durP2;ratioP2;P2;SDS_P1;SDS_P2;PMS_P1;PMS_P2;Temp;Humidity;BMP_temperature;BMP_pressure;BME280_temperature;BME280_humidity;BME280_pressure;Samples;Min_cycle;Max_cycle;Signal;HPM_P1;HPM_P2
2022/08/24 00:00:35;;;;;;;;;;;28.10;80.00;;;;;;5011818;28;19936;-59
2022/08/24 00:03:02;;;;;;;;;;;28.10;80.10;;;;;;5007865;28;19949;-62
2022/08/24 00:05:29;;;;;;;;;;;28.00;79.40;;;;;;5025525;28;19926;-63
2022/08/24 00:07:56;;;;;;;;;;;28.00;79.40;;;;;;5009662;28;19937;-64
2022/08/24 00:10:25;;;;;;;;;;;28.00;79.40;;;;;;5008354;28;19925;-61
2022/08/24 00:12:52;;;;;;;;;;;28.00;79.40;;;;;;5006204;28;20099;-59
2022/08/24 00:15:19;;;;;;;;;;;28.00;79.40;;;;;;5010505;28;19936;-59
2022/08/24 00:17:47;;;;;;;;;;;28.00;79.40;;;;;;5012962;28;20173;-63
2022/08/24 00:20:14;;;;;;;;;;;28.00;79.40;;;;;;5016982;28;19925;-62
2022/08/24 00:22:41;;;;;;;;;;;28.00;79.40;;;;;;5008664;28;19936;-61
2022/08/24 00:25:09;;;;;;;;;;;28.00;79.50;;;;;;5011705;28;19926;-63
2022/08/24 00:27:37;;;;;;;;;;;28.00;79.40;;;;;;5019802;28;20397;-63
2022/08/24 00:30:06;;;;;;;;;;;28.00;79.40;;;;;;5013502;28;19929;-62
2022/08/24 00:32:33;;;;;;;;;;;28.00;79.50;;;;;;5010279;28;19926;-57
2022/08/24 00:35:00;;;;;;;;;;;28.00;79.40;;;;;;5029184;28;19933;-63
2022/08/24 00:37:28;;;;;;;;;;;28.00;79.50;;;;;;5025882;28;19933;-62
2022/08/24 00:39:56;;;;;;;;;;;28.00;79.50;;;;;;5020494;28;19929;-61
2022/08/24 00:42:23;;;;;;;;;;;28.00;79.50;;;;;;5017723;28;19949;-63
2022/08/24 00:44:50;;;;;;;;;;;28.00;79.50;;;;;;5013200;28;19929;-63
2022/08/24 00:47:22;;;;;;;;;;;28.00;79.50;;;;;;5015057;28;19932;-62
2022/08/24 00:49:53;;;;;;;;;;;28.00;79.50;;;;;;5019487;28;20320;-63
2022/08/24 00:52:24;;;;;;;;;;;28.00;79.50;;;;;;5013498;28;19925;-59
2022/08/24 00:54:59;;;;;;;;;;;28.00;79.50;;;;;;5019302;28;20440;-60
2022/08/24 00:57:29;;;;;;;;;;;28.00;79.50;;;;;;5022825;28;19937;-60
2022/08/24 01:00:00;;;;;;;;;;;28.00;79.50;;;;;;5003319;28;19929;-60
2022/08/24 01:02:31;;;;;;;;;;;28.00;79.50;;;;;;5017863;28;19933;-63
2022/08/24 01:05:02;;;;;;;;;;;28.00;79.50;;;;;;5006857;28;19930;-62
2022/08/24 01:07:30;;;;;;;;;;;28.00;79.50;;;;;;5017167;28;19925;-61
2022/08/24 01:09:59;;;;;;;;;;;28.00;79.50;;;;;;5009575;28;19934;-63
2022/08/24 01:12:28;;;;;;;;;;;28.00;79.50;;;;;;5022072;28;19933;-63
2022/08/24 01:14:56;;;;;;;;;;;28.00;79.60;;;;;;5013663;28;19936;-62
2022/08/24 01:20:10;;;;;;;;;;;28.00;79.60;;;;;;5026665;28;19929;-62
2022/08/24 01:22:49;;;;;;;;;;;28.00;79.60;;;;;;5010637;28;19933;-60
2022/08/24 01:25:16;;;;;;;;;;;28.00;79.50;;;;;;5018274;28;20397;-64
2022/08/24 01:27:44;;;;;;;;;;;28.00;79.60;;;;;;5016260;28;20151;-61
2022/08/24 01:30:13;;;;;;;;;;;27.90;80.10;;;;;;5006251;28;19933;-62
2022/08/24 01:32:51;;;;;;;;;;;27.90;79.50;;;;;;5019203;28;19925;-61
2022/08/24 01:35:19;;;;;;;;;;;27.90;79.50;;;;;;5017492;28;19925;-62
2022/08/24 01:37:46;;;;;;;;;;;27.90;79.50;;;;;;5013221;28;19929;-63
2022/08/24 01:40:14;;;;;;;;;;;27.90;79.50;;;;;;5013605;28;19930;-61
2022/08/24 01:42:45;;;;;;;;;;;27.90;79.50;;;;;;5017810;28;19934;-62
2022/08/24 01:45:13;;;;;;;;;;;27.90;79.60;;;;;;5006094;28;19930;-62
2022/08/24 01:47:40;;;;;;;;;;;27.90;79.60;;;;;;5014331;28;19932;-62
2022/08/24 01:50:07;;;;;;;;;;;27.90;79.60;;;;;;4993099;28;19945;-65
2022/08/24 01:52:38;;;;;;;;;;;27.90;79.60;;;;;;5019590;28;20381;-61
2022/08/24 01:55:27;;;;;;;;;;;27.90;79.60;;;;;;4996870;28;19941;-63
2022/08/24 01:57:55;;;;;;;;;;;27.90;79.60;;;;;;5004333;28;19929;-61
2022/08/24 02:00:24;;;;;;;;;;;27.90;79.60;;;;;;5014061;28;19926;-62
2022/08/24 02:02:51;;;;;;;;;;;27.90;79.60;;;;;;5016404;28;20237;-61
2022/08/24 02:05:18;;;;;;;;;;;27.90;79.60;;;;;;5016902;28;19936;-63
2022/08/24 02:07:46;;;;;;;;;;;27.90;79.60;;;;;;5006889;28;19945;-63
2022/08/24 02:10:14;;;;;;;;;;;27.90;79.60;;;;;;5003159;28;19929;-62
2022/08/24 02:12:44;;;;;;;;;;;27.90;79.70;;;;;;5007130;28;20758;-63
2022/08/24 02:15:11;;;;;;;;;;;27.90;79.60;;;;;;5013384;28;19932;-61
2022/08/24 02:17:39;;;;;;;;;;;27.90;79.70;;;;;;5016948;28;20004;-62
2022/08/24 02:20:07;;;;;;;;;;;27.90;79.60;;;;;;5002471;28;20402;-64
2022/08/24 02:22:34;;;;;;;;;;;27.90;79.70;;;;;;5002752;28;19929;-62
2022/08/24 02:25:01;;;;;;;;;;;27.90;79.70;;;;;;5022824;28;19937;-62
2022/08/24 02:27:29;;;;;;;;;;;27.90;79.70;;;;;;5006251;28;20170;-63
2022/08/24 02:29:56;;;;;;;;;;;27.90;79.70;;;;;;5004428;28;20001;-61
2022/08/24 02:32:24;;;;;;;;;;;27.90;79.70;;;;;;5002918;28;19937;-60
2022/08/24 02:34:51;;;;;;;;;;;27.80;79.60;;;;;;5024475;28;19930;-64
2022/08/24 02:37:21;;;;;;;;;;;27.90;79.70;;;;;;5009711;28;19930;-63
2022/08/24 02:39:48;;;;;;;;;;;27.90;79.70;;;;;;5012516;28;19941;-67
2022/08/24 02:42:17;;;;;;;;;;;27.90;79.70;;;;;;5012655;28;20424;-62
2022/08/24 02:44:45;;;;;;;;;;;27.90;79.70;;;;;;5015644;28;19932;-62
2022/08/24 02:47:16;;;;;;;;;;;27.80;79.60;;;;;;5014241;28;19930;-63
2022/08/24 02:49:43;;;;;;;;;;;27.80;79.60;;;;;;5020393;28;19933;-62
2022/08/24 02:52:11;;;;;;;;;;;27.80;79.60;;;;;;5006688;28;19937;-62
2022/08/24 02:54:38;;;;;;;;;;;27.80;79.60;;;;;;5016626;28;19936;-62
2022/08/24 02:57:06;;;;;;;;;;;27.80;79.70;;;;;;5011235;28;19925;-62
2022/08/24 02:59:34;;;;;;;;;;;27.80;79.70;;;;;;5015493;28;20309;-59
2022/08/24 03:02:02;;;;;;;;;;;27.80;79.70;;;;;;5006176;28;19930;-62
2022/08/24 03:04:29;;;;;;;;;;;27.80;79.70;;;;;;5008959;28;20436;-63
2022/08/24 03:06:58;;;;;;;;;;;27.80;79.70;;;;;;4996687;28;19952;-63
2022/08/24 03:09:25;;;;;;;;;;;27.80;79.70;;;;;;5009442;28;19949;-62
2022/08/24 03:11:56;;;;;;;;;;;27.80;79.70;;;;;;5001139;28;20424;-60
2022/08/24 03:14:24;;;;;;;;;;;27.80;79.70;;;;;;5012491;28;19925;-62
2022/08/24 03:16:52;;;;;;;;;;;27.80;79.70;;;;;;5024770;28;19929;-62
2022/08/24 03:19:21;;;;;;;;;;;27.80;79.70;;;;;;5026767;28;19930;-63
2022/08/24 03:21:48;;;;;;;;;;;27.80;79.70;;;;;;5025388;28;19929;-62
2022/08/24 03:24:15;;;;;;;;;;;27.80;79.70;;;;;;5028993;28;19925;-64
2022/08/24 03:26:44;;;;;;;;;;;27.80;79.80;;;;;;5015219;28;19992;-63
2022/08/24 03:29:13;;;;;;;;;;;27.80;79.80;;;;;;5029536;28;19929;-62
2022/08/24 03:31:42;;;;;;;;;;;27.80;79.80;;;;;;5025264;28;19930;-63
2022/08/24 03:34:12;;;;;;;;;;;27.80;79.80;;;;;;5023350;28;19932;-64
2022/08/24 03:36:44;;;;;;;;;;;27.80;79.80;;;;;;5014753;28;20356;-62
2022/08/24 03:39:13;;;;;;;;;;;27.80;79.80;;;;;;5012429;28;19941;-62
2022/08/24 03:41:40;;;;;;;;;;;27.80;80.40;;;;;;5013894;28;19929;-62
2022/08/24 03:44:08;;;;;;;;;;;27.80;79.80;;;;;;5017822;28;19936;-63
2022/08/24 03:46:36;;;;;;;;;;;27.70;80.30;;;;;;5022503;28;19997;-62
2022/08/24 03:49:05;;;;;;;;;;;27.70;79.70;;;;;;5028845;28;19925;-63
2022/08/24 03:51:32;;;;;;;;;;;27.70;79.80;;;;;;5008434;28;20324;-63
2022/08/24 03:54:00;;;;;;;;;;;27.70;79.70;;;;;;5015511;28;19933;-61
2022/08/24 03:56:28;;;;;;;;;;;27.70;79.80;;;;;;5018644;28;19988;-61
2022/08/24 03:58:56;;;;;;;;;;;27.70;79.80;;;;;;5011727;28;20714;-61
2022/08/24 04:01:26;;;;;;;;;;;27.70;79.80;;;;;;5035427;28;20336;-62
2022/08/24 04:03:54;;;;;;;;;;;27.70;79.80;;;;;;5007241;28;19936;-63
2022/08/24 04:06:28;;;;;;;;;;;27.70;79.80;;;;;;5022483;28;19933;-61
2022/08/24 04:08:56;;;;;;;;;;;27.70;79.80;;;;;;5001507;28;19929;-63
2022/08/24 04:11:23;;;;;;;;;;;27.70;79.80;;;;;;5005354;28;19930;-61
2022/08/24 04:13:52;;;;;;;;;;;27.70;79.80;;;;;;5005799;28;19929;-64
2022/08/24 04:16:20;;;;;;;;;;;27.70;79.80;;;;;;5003720;28;19933;-62
2022/08/24 04:18:56;;;;;;;;;;;27.70;79.90;;;;;;5012777;28;19936;-61
2022/08/24 04:21:24;;;;;;;;;;;27.60;79.80;;;;;;5003285;28;20148;-62
2022/08/24 04:23:52;;;;;;;;;;;27.70;79.80;;;;;;5013777;28;19944;-63
2022/08/24 04:26:21;;;;;;;;;;;27.70;79.90;;;;;;5025729;28;20290;-64
2022/08/24 04:29:11;;;;;;;;;;;27.70;79.80;;;;;;5005878;28;19930;-63
2022/08/24 04:31:43;;;;;;;;;;;27.70;79.80;;;;;;5005080;28;19930;-63
2022/08/24 04:34:11;;;;;;;;;;;27.60;79.80;;;;;;5008860;28;19936;-63
2022/08/24 04:36:39;;;;;;;;;;;27.70;79.90;;;;;;5017218;28;20388;-63
2022/08/24 04:39:06;;;;;;;;;;;27.70;79.90;;;;;;5017430;28;19925;-62
2022/08/24 04:42:02;;;;;;;;;;;27.70;79.90;;;;;;5004087;28;19937;-63
2022/08/24 04:44:34;;;;;;;;;;;27.70;79.90;;;;;;5003680;28;20316;-63
2022/08/24 04:47:02;;;;;;;;;;;27.70;79.90;;;;;;5008625;28;20416;-59
2022/08/24 04:49:29;;;;;;;;;;;27.70;79.90;;;;;;5010262;28;19932;-61
2022/08/24 04:51:57;;;;;;;;;;;27.70;79.90;;;;;;5004046;28;19933;-62
2022/08/24 04:54:25;;;;;;;;;;;27.70;79.90;;;;;;5003725;28;19926;-62
2022/08/24 04:57:13;;;;;;;;;;;27.60;79.80;;;;;;5003799;28;19929;-61
2022/08/24 04:59:45;;;;;;;;;;;27.70;79.90;;;;;;5018128;28;20415;-61
2022/08/24 05:02:12;;;;;;;;;;;27.60;79.80;;;;;;5013408;28;19940;-62
2022/08/24 05:04:40;;;;;;;;;;;27.60;79.80;;;;;;5002170;28;20219;-61
2022/08/24 05:07:07;;;;;;;;;;;27.60;79.90;;;;;;5003479;28;19949;-60
2022/08/24 05:09:39;;;;;;;;;;;27.60;79.90;;;;;;5014671;28;19936;-60
2022/08/24 05:12:07;;;;;;;;;;;27.60;79.80;;;;;;5019259;28;20316;-60
2022/08/24 05:14:38;;;;;;;;;;;27.60;79.90;;;;;;5008037;28;19932;-61
2022/08/24 05:17:05;;;;;;;;;;;27.60;79.90;;;;;;5013967;28;19929;-61
2022/08/24 05:19:36;;;;;;;;;;;27.60;79.90;;;;;;5001238;28;20321;-61
2022/08/24 05:22:04;;;;;;;;;;;27.60;79.90;;;;;;5005256;28;19933;-61
2022/08/24 05:24:31;;;;;;;;;;;27.60;79.90;;;;;;5011725;28;19929;-63
2022/08/24 05:26:59;;;;;;;;;;;27.60;79.90;;;;;;5012969;28;20412;-62
2022/08/24 05:29:27;;;;;;;;;;;27.60;79.90;;;;;;5010338;28;21777;-63
2022/08/24 05:31:54;;;;;;;;;;;27.60;79.90;;;;;;5006663;28;19933;-62
2022/08/24 05:34:23;;;;;;;;;;;27.60;79.90;;;;;;5018225;28;20337;-63
2022/08/24 05:36:50;;;;;;;;;;;27.60;79.90;;;;;;5019666;28;19925;-63
2022/08/24 05:39:46;;;;;;;;;;;27.60;79.90;;;;;;5011234;28;19930;-62
2022/08/24 05:42:14;;;;;;;;;;;27.60;79.90;;;;;;5009266;28;19926;-58
2022/08/24 05:44:46;;;;;;;;;;;27.60;79.90;;;;;;5017758;28;19930;-60
2022/08/24 05:47:16;;;;;;;;;;;27.60;79.90;;;;;;5017400;28;19929;-60
2022/08/24 05:49:45;;;;;;;;;;;27.60;80.00;;;;;;5014836;28;19926;-63
2022/08/24 05:52:12;;;;;;;;;;;27.60;79.90;;;;;;5007170;28;20327;-63
2022/08/24 05:54:39;;;;;;;;;;;27.60;80.00;;;;;;5019655;28;19933;-63
2022/08/24 05:57:09;;;;;;;;;;;27.50;79.90;;;;;;5017589;28;19940;-62
2022/08/24 05:59:44;;;;;;;;;;;27.60;79.90;;;;;;5020338;28;19936;-62
2022/08/24 06:02:15;;;;;;;;;;;27.60;79.90;;;;;;5016907;28;19932;-63
2022/08/24 06:04:43;;;;;;;;;;;27.60;79.90;;;;;;5000421;28;19929;-61
2022/08/24 06:07:11;;;;;;;;;;;27.60;79.90;;;;;;5007521;28;19936;-61
2022/08/24 06:09:42;;;;;;;;;;;27.60;79.90;;;;;;5011622;28;19933;-62
2022/08/24 06:12:13;;;;;;;;;;;27.60;79.90;;;;;;5016299;28;20338;-61
2022/08/24 06:14:44;;;;;;;;;;;27.60;79.90;;;;;;5018380;28;19930;-60
2022/08/24 06:17:12;;;;;;;;;;;27.60;79.90;;;;;;5016238;28;19932;-61
2022/08/24 06:19:39;;;;;;;;;;;27.60;79.90;;;;;;5007840;28;19960;-61
2022/08/24 06:22:08;;;;;;;;;;;27.60;79.90;;;;;;5015593;28;20021;-60
2022/08/24 06:27:26;;;;;;;;;;;27.60;79.90;;;;;;5007832;28;19934;-62
2022/08/24 06:30:03;;;;;;;;;;;27.60;79.90;;;;;;5018208;28;19929;-60
2022/08/24 06:32:42;;;;;;;;;;;27.60;79.90;;;;;;5014638;28;19949;-63
2022/08/24 06:35:16;;;;;;;;;;;27.60;79.90;;;;;;5022216;28;20420;-58
2022/08/24 06:37:44;;;;;;;;;;;27.60;79.90;;;;;;5010050;28;20009;-62
2022/08/24 06:40:12;;;;;;;;;;;27.60;79.90;;;;;;5020686;28;19929;-60
2022/08/24 06:42:39;;;;;;;;;;;27.60;79.90;;;;;;5008258;28;20363;-62
2022/08/24 06:45:17;;;;;;;;;;;27.60;79.90;;;;;;5011915;28;19929;-59
2022/08/24 06:47:45;;;;;;;;;;;27.60;80.00;;;;;;5007509;28;19926;-60
2022/08/24 06:50:13;;;;;;;;;;;27.60;80.00;;;;;;5016880;28;19930;-61
2022/08/24 06:52:40;;;;;;;;;;;27.60;80.00;;;;;;5013827;28;19941;-61
2022/08/24 06:55:10;;;;;;;;;;;27.60;80.00;;;;;;5014192;28;20359;-60
2022/08/24 06:57:37;;;;;;;;;;;27.60;80.00;;;;;;5018375;28;19933;-60
2022/08/24 07:00:05;;;;;;;;;;;27.60;80.00;;;;;;5006358;28;19930;-61
2022/08/24 07:02:32;;;;;;;;;;;27.60;80.00;;;;;;5013137;28;19929;-60
2022/08/24 07:04:59;;;;;;;;;;;27.60;80.00;;;;;;5020542;28;19929;-59
2022/08/24 07:07:46;;;;;;;;;;;27.60;80.00;;;;;;5012578;28;20032;-60
2022/08/24 07:10:14;;;;;;;;;;;27.60;80.10;;;;;;5018795;28;20371;-58
2022/08/24 07:12:41;;;;;;;;;;;27.60;80.10;;;;;;5014645;28;19933;-61
2022/08/24 07:15:08;;;;;;;;;;;27.60;80.10;;;;;;5009638;28;19933;-60
2022/08/24 07:17:46;;;;;;;;;;;27.60;80.10;;;;;;5007294;28;19929;-60
2022/08/24 07:20:13;;;;;;;;;;;27.60;80.10;;;;;;5017930;28;19936;-61
2022/08/24 07:22:59;;;;;;;;;;;27.60;80.10;;;;;;5011498;28;19935;-60
2022/08/24 07:25:29;;;;;;;;;;;27.60;80.10;;;;;;5015986;28;20051;-60
2022/08/24 07:27:57;;;;;;;;;;;27.60;80.10;;;;;;5014178;28;19930;-60
2022/08/24 07:30:24;;;;;;;;;;;27.60;80.10;;;;;;5009047;28;19933;-60
2022/08/24 07:32:56;;;;;;;;;;;27.70;80.20;;;;;;5011523;28;19945;-59
2022/08/24 07:35:25;;;;;;;;;;;27.70;80.20;;;;;;5010726;28;19925;-60
2022/08/24 07:37:54;;;;;;;;;;;27.70;80.20;;;;;;5007003;28;19929;-60
2022/08/24 07:40:22;;;;;;;;;;;27.70;80.20;;;;;;5016135;28;19974;-60
2022/08/24 07:42:51;;;;;;;;;;;27.70;80.20;;;;;;5013874;28;20639;-59
2022/08/24 07:45:19;;;;;;;;;;;27.70;80.20;;;;;;5011736;28;20571;-60
2022/08/24 07:47:50;;;;;;;;;;;27.70;80.20;;;;;;5012201;28;19929;-58
2022/08/24 07:50:39;;;;;;;;;;;27.70;80.20;;;;;;5001315;28;19929;-61
2022/08/24 07:53:06;;;;;;;;;;;27.70;80.20;;;;;;5008370;28;19929;-61
2022/08/24 07:55:40;;;;;;;;;;;27.80;80.30;;;;;;5004609;28;19933;-60
2022/08/24 07:58:13;;;;;;;;;;;27.80;80.30;;;;;;5010742;28;19937;-61
2022/08/24 08:00:40;;;;;;;;;;;27.80;80.30;;;;;;5008119;28;19940;-60
2022/08/24 08:03:07;;;;;;;;;;;27.80;80.30;;;;;;5011726;28;20516;-58
2022/08/24 08:05:37;;;;;;;;;;;27.80;80.30;;;;;;5020229;28;20428;-60
2022/08/24 08:08:04;;;;;;;;;;;27.80;80.30;;;;;;5011875;28;19936;-60
2022/08/24 08:10:34;;;;;;;;;;;27.80;80.30;;;;;;5009307;28;19929;-60
2022/08/24 08:13:02;;;;;;;;;;;27.80;80.30;;;;;;5025638;28;19937;-61
2022/08/24 08:15:31;;;;;;;;;;;27.80;80.30;;;;;;5014329;28;19940;-60
2022/08/24 08:18:03;;;;;;;;;;;27.80;80.30;;;;;;5021873;28;19936;-58
2022/08/24 08:20:33;;;;;;;;;;;27.80;80.40;;;;;;5012782;28;20324;-61
2022/08/24 08:26:05;;;;;;;;;;;27.80;80.30;;;;;;4999243;28;19937;-57
2022/08/24 08:29:05;;;;;;;;;;;27.80;80.30;;;;;;5003721;28;20309;-60
2022/08/24 08:31:36;;;;;;;;;;;27.80;80.30;;;;;;5006974;28;19926;-58
2022/08/24 08:34:04;;;;;;;;;;;27.80;80.30;;;;;;5011014;28;20041;-62
2022/08/24 08:36:31;;;;;;;;;;;27.80;80.90;;;;;;5003905;28;19949;-62
2022/08/24 08:39:00;;;;;;;;;;;27.80;80.40;;;;;;5011214;28;19933;-61
2022/08/24 08:41:31;;;;;;;;;;;27.80;80.30;;;;;;5011656;28;19933;-59
2022/08/24 08:44:21;;;;;;;;;;;27.90;80.40;;;;;;4998767;28;19925;-61
2022/08/24 08:46:51;;;;;;;;;;;27.80;80.30;;;;;;5008659;28;19941;-59
2022/08/24 08:49:35;;;;;;;;;;;27.80;80.30;;;;;;5008409;28;19926;-58
2022/08/24 08:52:23;;;;;;;;;;;27.90;80.40;;;;;;5009665;28;19940;-58
2022/08/24 08:54:50;;;;;;;;;;;27.90;80.40;;;;;;5017979;28;19956;-57
2022/08/24 08:57:34;;;;;;;;;;;27.90;80.40;;;;;;5004436;28;19932;-58
2022/08/24 09:00:22;;;;;;;;;;;27.90;80.40;;;;;;5010031;28;19929;-56
2022/08/24 09:03:07;;;;;;;;;;;27.90;80.40;;;;;;5014866;28;19925;-59
2022/08/24 09:05:42;;;;;;;;;;;27.90;80.40;;;;;;5011461;28;19936;-59
2022/08/24 09:08:27;;;;;;;;;;;27.90;80.40;;;;;;5019474;28;19929;-60
2022/08/24 09:10:55;;;;;;;;;;;27.90;80.40;;;;;;5014908;28;19932;-58
2022/08/24 09:13:42;;;;;;;;;;;27.90;80.40;;;;;;5015600;28;19929;-60
2022/08/24 09:16:30;;;;;;;;;;;27.90;80.40;;;;;;5012624;28;19929;-60
2022/08/24 09:19:18;;;;;;;;;;;27.90;80.40;;;;;;5003991;28;19932;-62
2022/08/24 09:21:55;;;;;;;;;;;27.90;80.40;;;;;;5011194;28;20344;-58
2022/08/24 09:24:34;;;;;;;;;;;27.90;80.40;;;;;;5011722;28;21746;-55
2022/08/24 09:27:15;;;;;;;;;;;27.90;80.40;;;;;;5009491;28;19936;-63
2022/08/24 09:29:44;;;;;;;;;;;27.90;80.40;;;;;;5031680;28;20370;-59
2022/08/24 09:32:11;;;;;;;;;;;27.90;80.40;;;;;;5020173;28;20422;-61
2022/08/24 09:35:02;;;;;;;;;;;27.90;80.40;;;;;;5023396;28;19925;-61
2022/08/24 09:37:41;;;;;;;;;;;27.90;80.40;;;;;;5021617;28;19944;-61
2022/08/24 09:40:16;;;;;;;;;;;27.90;80.40;;;;;;5024930;28;19926;-61
2022/08/24 09:42:46;;;;;;;;;;;27.90;80.40;;;;;;5016572;28;19944;-61
2022/08/24 09:45:22;;;;;;;;;;;27.90;80.40;;;;;;5024303;28;19929;-61
2022/08/24 09:48:03;;;;;;;;;;;28.00;80.50;;;;;;5015930;28;19929;-62
2022/08/24 09:50:48;;;;;;;;;;;28.00;80.50;;;;;;5018184;28;19925;-62
2022/08/24 09:53:23;;;;;;;;;;;28.00;80.50;;;;;;5008195;28;19929;-59
2022/08/24 09:56:03;;;;;;;;;;;28.00;80.50;;;;;;5021806;28;19929;-60
2022/08/24 09:58:36;;;;;;;;;;;28.00;80.50;;;;;;5021235;28;19941;-61
2022/08/24 10:01:11;;;;;;;;;;;28.00;80.50;;;;;;5014464;28;19948;-59
2022/08/24 10:03:39;;;;;;;;;;;28.00;80.50;;;;;;5007776;28;20409;-61
2022/08/24 10:06:06;;;;;;;;;;;28.00;80.50;;;;;;5016764;28;20411;-55
2022/08/24 10:08:39;;;;;;;;;;;28.00;80.50;;;;;;5009035;28;20318;-62
2022/08/24 10:11:19;;;;;;;;;;;28.00;80.50;;;;;;5014614;28;19933;-58
2022/08/24 10:13:58;;;;;;;;;;;28.00;80.50;;;;;;5004926;28;20431;-61
2022/08/24 10:16:32;;;;;;;;;;;28.00;80.50;;;;;;5010022;28;19930;-61
2022/08/24 10:19:22;;;;;;;;;;;28.00;80.50;;;;;;5015967;28;20133;-62
2022/08/24 10:21:52;;;;;;;;;;;28.00;80.50;;;;;;5008383;28;19930;-61
2022/08/24 10:24:38;;;;;;;;;;;28.00;80.50;;;;;;5007094;28;19937;-58
2022/08/24 10:27:08;;;;;;;;;;;28.00;80.50;;;;;;5009345;28;19925;-60
2022/08/24 10:29:54;;;;;;;;;;;28.00;80.50;;;;;;5010248;28;19932;-61
2022/08/24 10:32:39;;;;;;;;;;;28.00;80.50;;;;;;5016722;28;19934;-60
2022/08/24 10:35:19;;;;;;;;;;;28.00;80.50;;;;;;5013057;28;19936;-61
2022/08/24 10:41:04;;;;;;;;;;;28.00;80.50;;;;;;5015523;28;19940;-61
2022/08/24 10:43:45;;;;;;;;;;;28.00;80.40;;;;;;5012673;28;19940;-58
2022/08/24 10:46:47;;;;;;;;;;;28.00;80.40;;;;;;5020966;28;19929;-61
2022/08/24 10:49:33;;;;;;;;;;;28.00;80.40;;;;;;4991033;28;19933;-57
2022/08/24 10:52:09;;;;;;;;;;;28.00;80.30;;;;;;5010680;28;19948;-60
2022/08/24 10:54:36;;;;;;;;;;;28.10;80.40;;;;;;5008384;28;19929;-58
2022/08/24 10:57:22;;;;;;;;;;;28.00;80.40;;;;;;5017007;28;20301;-59
2022/08/24 10:59:50;;;;;;;;;;;28.10;80.40;;;;;;5005282;28;20378;-62
2022/08/24 11:02:29;;;;;;;;;;;28.00;80.40;;;;;;5015158;28;20397;-61
2022/08/24 11:04:58;;;;;;;;;;;28.00;80.30;;;;;;5015743;28;19929;-58
2022/08/24 11:07:25;;;;;;;;;;;28.00;80.40;;;;;;5016940;28;19930;-62
2022/08/24 11:09:55;;;;;;;;;;;28.10;80.40;;;;;;5009514;28;19930;-60
2022/08/24 11:12:25;;;;;;;;;;;28.10;80.40;;;;;;5009913;28;19936;-60
2022/08/24 11:14:55;;;;;;;;;;;28.00;80.30;;;;;;5006860;28;19929;-60
2022/08/24 11:17:24;;;;;;;;;;;28.10;80.40;;;;;;5011439;28;19930;-61
2022/08/24 11:19:51;;;;;;;;;;;28.10;80.40;;;;;;5022739;28;19929;-58
2022/08/24 11:22:31;;;;;;;;;;;28.10;80.40;;;;;;5006850;28;19930;-61
2022/08/24 11:25:06;;;;;;;;;;;28.10;80.40;;;;;;5016034;28;19929;-55
2022/08/24 11:27:35;;;;;;;;;;;28.10;80.40;;;;;;5018987;28;19929;-61
2022/08/24 11:30:09;;;;;;;;;;;28.10;80.40;;;;;;5004372;28;20412;-58
2022/08/24 11:32:37;;;;;;;;;;;28.10;80.40;;;;;;4992289;28;19937;-57
2022/08/24 11:35:16;;;;;;;;;;;28.10;80.40;;;;;;5006319;28;19930;-61
2022/08/24 11:37:43;;;;;;;;;;;28.10;80.40;;;;;;5007254;28;20575;-60
2022/08/24 11:40:11;;;;;;;;;;;28.10;80.40;;;;;;5015596;28;20329;-58
2022/08/24 11:42:42;;;;;;;;;;;28.10;80.40;;;;;;5007759;28;19948;-61
2022/08/24 11:45:14;;;;;;;;;;;28.10;80.40;;;;;;5018503;28;19940;-62
2022/08/24 11:47:55;;;;;;;;;;;28.10;80.40;;;;;;5003839;28;19925;-60
2022/08/24 11:50:25;;;;;;;;;;;28.10;80.40;;;;;;5017399;28;19932;-62
2022/08/24 11:53:08;;;;;;;;;;;28.10;80.40;;;;;;5008706;28;20424;-61
2022/08/24 11:55:46;;;;;;;;;;;28.10;80.30;;;;;;5014243;28;20597;-60
2022/08/24 11:58:23;;;;;;;;;;;28.10;80.30;;;;;;5009494;28;19936;-59
2022/08/24 12:01:09;;;;;;;;;;;28.10;80.30;;;;;;4998993;28;19936;-62
2022/08/24 12:03:36;;;;;;;;;;;28.10;80.30;;;;;;5017722;28;19936;-62
2022/08/24 12:06:12;;;;;;;;;;;28.10;80.30;;;;;;5013404;28;19925;-60
2022/08/24 12:08:44;;;;;;;;;;;28.10;80.30;;;;;;5015756;28;19940;-63
2022/08/24 12:11:31;;;;;;;;;;;28.10;80.20;;;;;;5000500;28;20131;-61
2022/08/24 12:14:07;;;;;;;;;;;28.10;80.20;;;;;;5006549;28;19930;-62
2022/08/24 12:16:41;;;;;;;;;;;28.10;80.20;;;;;;5011627;28;19936;-62
2022/08/24 12:19:16;;;;;;;;;;;28.10;80.30;;;;;;5010878;28;19945;-59
2022/08/24 12:21:45;;;;;;;;;;;28.10;80.30;;;;;;5007590;28;19937;-61
2022/08/24 12:24:19;;;;;;;;;;;28.10;80.20;;;;;;5008839;28;20329;-61
2022/08/24 12:26:49;;;;;;;;;;;28.10;80.20;;;;;;5022639;28;19944;-59
2022/08/24 12:29:27;;;;;;;;;;;28.10;80.20;;;;;;5018048;28;19936;-56
2022/08/24 12:32:00;;;;;;;;;;;28.10;80.20;;;;;;5022687;28;19926;-60
2022/08/24 12:34:46;;;;;;;;;;;28.10;80.20;;;;;;5013271;28;19937;-60
2022/08/24 12:37:51;;;;;;;;;;;28.10;80.20;;;;;;5010192;28;19926;-59
2022/08/24 12:40:18;;;;;;;;;;;28.20;80.20;;;;;;4970636;28;19926;-58
2022/08/24 12:42:58;;;;;;;;;;;28.10;80.10;;;;;;5006204;28;19930;-60
2022/08/24 12:45:26;;;;;;;;;;;28.10;80.10;;;;;;5025993;28;19941;-63
2022/08/24 12:48:15;;;;;;;;;;;28.20;80.10;;;;;;5017547;28;19944;-62
2022/08/24 12:50:51;;;;;;;;;;;28.10;80.00;;;;;;5014210;28;19933;-60
2022/08/24 12:53:28;;;;;;;;;;;28.20;80.10;;;;;;5022278;28;19925;-59
2022/08/24 12:56:04;;;;;;;;;;;28.20;80.00;;;;;;5012299;28;19937;-61
2022/08/24 12:58:31;;;;;;;;;;;28.20;80.00;;;;;;5020817;28;19937;-61
2022/08/24 13:01:05;;;;;;;;;;;28.20;79.90;;;;;;5009644;28;19936;-59
2022/08/24 13:03:34;;;;;;;;;;;28.20;79.90;;;;;;5017134;28;19940;-59
2022/08/24 13:06:09;;;;;;;;;;;28.20;79.80;;;;;;5026018;28;20294;-58
2022/08/24 13:08:42;;;;;;;;;;;28.30;79.90;;;;;;5012538;28;19930;-61
2022/08/24 13:11:27;;;;;;;;;;;28.30;79.80;;;;;;5014950;28;20286;-59
2022/08/24 13:13:57;;;;;;;;;;;28.30;79.80;;;;;;5019764;28;19925;-60
2022/08/24 13:16:46;;;;;;;;;;;28.30;79.80;;;;;;5014615;28;19940;-60
2022/08/24 13:19:27;;;;;;;;;;;28.30;79.70;;;;;;5016522;28;19929;-61
2022/08/24 13:21:57;;;;;;;;;;;28.40;79.70;;;;;;5012544;28;19960;-59
2022/08/24 13:24:27;;;;;;;;;;;28.40;79.70;;;;;;5009267;28;19933;-60
2022/08/24 13:26:56;;;;;;;;;;;28.40;79.60;;;;;;5011532;28;19936;-61
2022/08/24 13:29:26;;;;;;;;;;;28.50;80.20;;;;;;5013341;28;19936;-60
2022/08/24 13:31:55;;;;;;;;;;;28.50;79.60;;;;;;5011028;28;19925;-59
2022/08/24 13:34:36;;;;;;;;;;;28.50;79.50;;;;;;5010817;28;20706;-57
2022/08/24 13:37:13;;;;;;;;;;;28.60;79.50;;;;;;5008241;28;20581;-59
2022/08/24 13:39:59;;;;;;;;;;;28.60;79.40;;;;;;5012505;28;19935;-60
2022/08/24 13:42:36;;;;;;;;;;;28.60;79.40;;;;;;5008530;28;19936;-57
2022/08/24 13:45:06;;;;;;;;;;;28.70;79.40;;;;;;5001622;28;19933;-60
2022/08/24 13:47:49;;;;;;;;;;;28.70;79.30;;;;;;5002172;28;19929;-60
2022/08/24 13:50:31;;;;;;;;;;;28.70;79.20;;;;;;5016280;28;19941;-60
2022/08/24 13:53:17;;;;;;;;;;;28.80;79.20;;;;;;5017267;28;19929;-58
2022/08/24 13:55:52;;;;;;;;;;;28.80;79.10;;;;;;5009343;28;20316;-60
2022/08/24 13:58:35;;;;;;;;;;;28.90;79.10;;;;;;5018926;28;20401;-57
2022/08/24 14:01:22;;;;;;;;;;;28.90;79.00;;;;;;5024284;28;19933;-56
2022/08/24 14:03:56;;;;;;;;;;;29.00;79.00;;;;;;5013131;28;19929;-59
2022/08/24 14:06:29;;;;;;;;;;;29.00;78.90;;;;;;5024835;28;20412;-62
2022/08/24 14:09:01;;;;;;;;;;;29.00;78.80;;;;;;5010738;28;19929;-60
2022/08/24 14:11:31;;;;;;;;;;;29.10;78.80;;;;;;5016379;28;19930;-59
2022/08/24 14:14:05;;;;;;;;;;;29.10;78.70;;;;;;5007899;28;19937;-60
2022/08/24 14:19:30;;;;;;;;;;;29.10;78.70;;;;;;5011908;28;20424;-58
2022/08/24 14:22:06;;;;;;;;;;;29.10;78.70;;;;;;5008963;28;19930;-61
2022/08/24 14:24:39;;;;;;;;;;;29.10;78.70;;;;;;5014203;28;19929;-60
2022/08/24 14:27:36;;;;;;;;;;;29.20;78.80;;;;;;5003058;28;19925;-58
2022/08/24 14:30:33;;;;;;;;;;;29.20;78.60;;;;;;5001324;28;19933;-58
2022/08/24 14:33:00;;;;;;;;;;;29.20;78.60;;;;;;5013911;28;19933;-60
2022/08/24 14:35:30;;;;;;;;;;;29.20;78.40;;;;;;5003833;28;19932;-61
2022/08/24 14:38:17;;;;;;;;;;;29.30;78.40;;;;;;5015041;28;19937;-61
2022/08/24 14:40:50;;;;;;;;;;;29.30;78.30;;;;;;5011376;28;19932;-61
2022/08/24 14:43:23;;;;;;;;;;;29.40;78.20;;;;;;5016424;28;19940;-60
2022/08/24 14:46:06;;;;;;;;;;;29.40;78.10;;;;;;5015565;28;19930;-61
2022/08/24 14:48:49;;;;;;;;;;;29.50;78.20;;;;;;5009187;28;19926;-57
2022/08/24 14:51:24;;;;;;;;;;;29.50;78.10;;;;;;5014292;28;19930;-61
2022/08/24 14:53:58;;;;;;;;;;;29.50;78.00;;;;;;5019144;28;19936;-57
2022/08/24 14:56:37;;;;;;;;;;;29.60;78.00;;;;;;5022150;28;19929;-62
2022/08/24 14:59:06;;;;;;;;;;;29.60;77.90;;;;;;5011494;28;19937;-60
2022/08/24 15:01:57;;;;;;;;;;;29.70;77.90;;;;;;5006809;28;19925;-59